Holly Hill, Florida
Current Conditions -  °F | °C
As of 2:53 AM on Friday 19 Dec 2014 (Local Time) from KDAB Reporting Station
Scattered Clouds Scattered Clouds  
Wind Chill: 12°   Ceiling: Unl
Heat Index: 12°   Visibility: 10mi
Dew Point:   Wind: 3mph
Humidity: 80%   Direction: 310°NW
Pressure: 30.11"   Gusts: NA
Location:  29.25°N, 81.04°W
Report Text: KDAB 190753Z 31003KT 10SM SCT200 SCT250 12/09 A3011 RMK AO2 SLP196 T01220089
Loading
Personal Weather Stations






























Interactive Weather Map New forecast layout! Learn more

10-Day Weather Forecast

Advertisements
Track Severe Weather on mobile